sensor_id;sensor_type;location;lat;lon;timestamp;P1;durP1;ratioP1;P2;durP2;ratioP2
7001;SDS011;3541;53.230;10.518;2023-02-28T00:01:17;3.50;;;2.23;;
7001;SDS011;3541;53.230;10.518;2023-02-28T00:03:44;3.17;;;1.67;;
7001;SDS011;3541;53.230;10.518;2023-02-28T00:06:11;4.37;;;2.57;;
7001;SDS011;3541;53.230;10.518;2023-02-28T00:08:37;3.23;;;2.20;;
7001;SDS011;3541;53.230;10.518;2023-02-28T00:11:05;4.07;;;2.03;;
7001;SDS011;3541;53.230;10.518;2023-02-28T00:13:34;4.13;;;2.40;;
7001;SDS011;3541;53.230;10.518;2023-02-28T00:16:04;4.53;;;2.77;;
7001;SDS011;3541;53.230;10.518;2023-02-28T00:18:31;5.97;;;2.90;;
7001;SDS011;3541;53.230;10.518;2023-02-28T00:20:58;3.53;;;2.40;;
7001;SDS011;3541;53.230;10.518;2023-02-28T00:23:25;6.00;;;3.00;;
7001;SDS011;3541;53.230;10.518;2023-02-28T00:25:53;4.83;;;2.80;;
7001;SDS011;3541;53.230;10.518;2023-02-28T00:28:20;4.27;;;2.53;;
7001;SDS011;3541;53.230;10.518;2023-02-28T00:30:46;5.80;;;2.73;;
7001;SDS011;3541;53.230;10.518;2023-02-28T00:33:15;3.87;;;2.43;;
7001;SDS011;3541;53.230;10.518;2023-02-28T00:35:41;5.67;;;2.60;;
7001;SDS011;3541;53.230;10.518;2023-02-28T00:38:08;4.93;;;2.40;;
7001;SDS011;3541;53.230;10.518;2023-02-28T00:40:35;3.57;;;2.70;;
7001;SDS011;3541;53.230;10.518;2023-02-28T00:43:01;3.93;;;2.70;;
7001;SDS011;3541;53.230;10.518;2023-02-28T00:45:28;4.67;;;2.30;;
7001;SDS011;3541;53.230;10.518;2023-02-28T00:47:55;3.80;;;2.60;;
7001;SDS011;3541;53.230;10.518;2023-02-28T00:50:23;3.73;;;2.60;;
7001;SDS011;3541;53.230;10.518;2023-02-28T00:52:50;4.83;;;2.57;;
7001;SDS011;3541;53.230;10.518;2023-02-28T00:55:16;6.43;;;2.50;;
7001;SDS011;3541;53.230;10.518;2023-02-28T00:57:43;3.47;;;2.27;;
7001;SDS011;3541;53.230;10.518;2023-02-28T01:00:10;5.17;;;2.17;;
7001;SDS011;3541;53.230;10.518;2023-02-28T01:02:37;5.87;;;2.30;;
7001;SDS011;3541;53.230;10.518;2023-02-28T01:05:04;3.60;;;2.20;;
7001;SDS011;3541;53.230;10.518;2023-02-28T01:07:33;3.03;;;1.93;;
7001;SDS011;3541;53.230;10.518;2023-02-28T01:09:59;5.23;;;2.33;;
7001;SDS011;3541;53.230;10.518;2023-02-28T01:12:26;2.53;;;2.23;;
7001;SDS011;3541;53.230;10.518;2023-02-28T01:14:52;5.87;;;2.10;;
7001;SDS011;3541;53.230;10.518;2023-02-28T01:17:19;3.93;;;2.03;;
7001;SDS011;3541;53.230;10.518;2023-02-28T01:19:45;3.37;;;2.37;;
7001;SDS011;3541;53.230;10.518;2023-02-28T01:22:12;5.73;;;2.53;;
7001;SDS011;3541;53.230;10.518;2023-02-28T01:24:40;5.20;;;2.80;;
7001;SDS011;3541;53.230;10.518;2023-02-28T01:27:07;3.67;;;2.00;;
7001;SDS011;3541;53.230;10.518;2023-02-28T01:29:33;4.87;;;2.73;;
7001;SDS011;3541;53.230;10.518;2023-02-28T01:32:00;3.03;;;2.47;;
7001;SDS011;3541;53.230;10.518;2023-02-28T01:34:27;4.00;;;2.20;;
7001;SDS011;3541;53.230;10.518;2023-02-28T01:36:54;3.23;;;2.03;;
7001;SDS011;3541;53.230;10.518;2023-02-28T01:39:23;2.97;;;2.10;;
7001;SDS011;3541;53.230;10.518;2023-02-28T01:41:51;6.27;;;2.27;;
7001;SDS011;3541;53.230;10.518;2023-02-28T01:47:22;4.47;;;2.30;;
7001;SDS011;3541;53.230;10.518;2023-02-28T01:49:53;4.37;;;2.30;;
7001;SDS011;3541;53.230;10.518;2023-02-28T01:52:20;3.87;;;2.73;;
7001;SDS011;3541;53.230;10.518;2023-02-28T01:54:50;2.40;;;2.20;;
7001;SDS011;3541;53.230;10.518;2023-02-28T01:57:20;4.17;;;2.40;;
7001;SDS011;3541;53.230;10.518;2023-02-28T01:59:50;2.67;;;2.30;;
7001;SDS011;3541;53.230;10.518;2023-02-28T02:02:20;3.90;;;2.40;;
7001;SDS011;3541;53.230;10.518;2023-02-28T02:04:50;4.67;;;2.20;;
7001;SDS011;3541;53.230;10.518;2023-02-28T02:07:20;5.53;;;2.37;;
7001;SDS011;3541;53.230;10.518;2023-02-28T02:09:47;3.87;;;2.23;;
7001;SDS011;3541;53.230;10.518;2023-02-28T02:12:19;3.83;;;2.40;;
7001;SDS011;3541;53.230;10.518;2023-02-28T02:14:59;3.27;;;1.90;;
7001;SDS011;3541;53.230;10.518;2023-02-28T02:17:34;3.87;;;2.47;;
7001;SDS011;3541;53.230;10.518;2023-02-28T02:29:31;3.47;;;2.00;;
7001;SDS011;3541;53.230;10.518;2023-02-28T02:32:23;4.53;;;1.90;;
7001;SDS011;3541;53.230;10.518;2023-02-28T02:35:13;3.63;;;2.20;;
7001;SDS011;3541;53.230;10.518;2023-02-28T02:37:47;4.67;;;2.20;;
7001;SDS011;3541;53.230;10.518;2023-02-28T02:40:17;3.73;;;2.23;;
7001;SDS011;3541;53.230;10.518;2023-02-28T02:42:48;3.43;;;2.33;;
7001;SDS011;3541;53.230;10.518;2023-02-28T02:45:21;2.83;;;1.97;;
7001;SDS011;3541;53.230;10.518;2023-02-28T02:47:52;4.80;;;2.17;;
7001;SDS011;3541;53.230;10.518;2023-02-28T02:50:24;4.23;;;2.27;;
7001;SDS011;3541;53.230;10.518;2023-02-28T02:52:55;2.83;;;2.10;;
7001;SDS011;3541;53.230;10.518;2023-02-28T02:55:24;7.77;;;2.10;;
7001;SDS011;3541;53.230;10.518;2023-02-28T02:57:52;3.87;;;2.40;;
7001;SDS011;3541;53.230;10.518;2023-02-28T03:00:23;3.07;;;2.10;;
7001;SDS011;3541;53.230;10.518;2023-02-28T03:02:52;3.00;;;1.77;;
7001;SDS011;3541;53.230;10.518;2023-02-28T03:05:23;2.90;;;1.90;;
7001;SDS011;3541;53.230;10.518;2023-02-28T03:07:52;2.80;;;1.80;;
7001;SDS011;3541;53.230;10.518;2023-02-28T03:10:26;3.30;;;1.80;;
7001;SDS011;3541;53.230;10.518;2023-02-28T03:12:59;2.50;;;2.17;;
7001;SDS011;3541;53.230;10.518;2023-02-28T03:15:36;5.33;;;2.07;;
7001;SDS011;3541;53.230;10.518;2023-02-28T03:18:15;2.50;;;2.10;;
7001;SDS011;3541;53.230;10.518;2023-02-28T03:20:53;2.37;;;1.87;;
7001;SDS011;3541;53.230;10.518;2023-02-28T03:23:28;2.60;;;1.87;;
7001;SDS011;3541;53.230;10.518;2023-02-28T03:26:02;3.70;;;2.10;;
7001;SDS011;3541;53.230;10.518;2023-02-28T03:28:32;2.47;;;1.90;;
7001;SDS011;3541;53.230;10.518;2023-02-28T03:31:08;3.13;;;1.77;;
7001;SDS011;3541;53.230;10.518;2023-02-28T03:33:38;2.20;;;1.80;;
7001;SDS011;3541;53.230;10.518;2023-02-28T03:36:12;3.40;;;2.00;;
7001;SDS011;3541;53.230;10.518;2023-02-28T03:38:43;3.00;;;1.80;;
7001;SDS011;3541;53.230;10.518;2023-02-28T03:41:13;2.17;;;1.70;;
7001;SDS011;3541;53.230;10.518;2023-02-28T03:43:44;2.10;;;1.70;;
7001;SDS011;3541;53.230;10.518;2023-02-28T03:46:14;3.27;;;1.80;;
7001;SDS011;3541;53.230;10.518;2023-02-28T03:48:47;3.33;;;1.90;;
7001;SDS011;3541;53.230;10.518;2023-02-28T03:51:18;3.20;;;2.13;;
7001;SDS011;3541;53.230;10.518;2023-02-28T03:53:49;3.03;;;2.07;;
7001;SDS011;3541;53.230;10.518;2023-02-28T03:56:19;3.27;;;1.90;;
7001;SDS011;3541;53.230;10.518;2023-02-28T03:58:51;4.27;;;2.10;;
7001;SDS011;3541;53.230;10.518;2023-02-28T04:01:24;3.83;;;2.40;;
7001;SDS011;3541;53.230;10.518;2023-02-28T04:03:54;4.47;;;2.13;;
7001;SDS011;3541;53.230;10.518;2023-02-28T04:06:22;4.40;;;2.23;;
7001;SDS011;3541;53.230;10.518;2023-02-28T04:08:49;4.87;;;2.47;;
7001;SDS011;3541;53.230;10.518;2023-02-28T04:11:18;4.13;;;2.33;;
7001;SDS011;3541;53.230;10.518;2023-02-28T04:13:48;5.27;;;2.37;;
7001;SDS011;3541;53.230;10.518;2023-02-28T04:16:14;3.20;;;2.03;;
7001;SDS011;3541;53.230;10.518;2023-02-28T04:18:42;3.83;;;2.13;;
7001;SDS011;3541;53.230;10.518;2023-02-28T04:21:09;3.83;;;2.17;;
7001;SDS011;3541;53.230;10.518;2023-02-28T04:23:37;3.33;;;2.17;;
7001;SDS011;3541;53.230;10.518;2023-02-28T04:26:04;2.97;;;2.10;;
7001;SDS011;3541;53.230;10.518;2023-02-28T04:28:31;2.57;;;2.30;;
7001;SDS011;3541;53.230;10.518;2023-02-28T04:30:58;3.47;;;2.10;;
7001;SDS011;3541;53.230;10.518;2023-02-28T04:33:26;2.30;;;2.03;;
7001;SDS011;3541;53.230;10.518;2023-02-28T04:35:59;3.93;;;2.20;;
7001;SDS011;3541;53.230;10.518;2023-02-28T04:38:27;4.13;;;2.30;;
7001;SDS011;3541;53.230;10.518;2023-02-28T04:40:57;4.23;;;2.17;;
7001;SDS011;3541;53.230;10.518;2023-02-28T04:43:25;4.47;;;2.10;;
7001;SDS011;3541;53.230;10.518;2023-02-28T04:45:52;3.23;;;2.30;;
7001;SDS011;3541;53.230;10.518;2023-02-28T04:48:19;3.97;;;2.20;;
7001;SDS011;3541;53.230;10.518;2023-02-28T04:50:45;3.87;;;2.40;;
7001;SDS011;3541;53.230;10.518;2023-02-28T04:53:12;2.33;;;2.03;;
7001;SDS011;3541;53.230;10.518;2023-02-28T04:55:39;2.10;;;1.87;;
7001;SDS011;3541;53.230;10.518;2023-02-28T04:58:07;4.10;;;2.30;;
7001;SDS011;3541;53.230;10.518;2023-02-28T05:00:33;3.17;;;2.30;;
7001;SDS011;3541;53.230;10.518;2023-02-28T05:03:00;4.07;;;2.77;;
7001;SDS011;3541;53.230;10.518;2023-02-28T05:05:27;4.63;;;2.40;;
7001;SDS011;3541;53.230;10.518;2023-02-28T05:07:54;4.27;;;2.57;;
7001;SDS011;3541;53.230;10.518;2023-02-28T05:10:21;2.57;;;2.37;;
7001;SDS011;3541;53.230;10.518;2023-02-28T05:12:48;5.47;;;2.70;;
7001;SDS011;3541;53.230;10.518;2023-02-28T05:15:16;3.50;;;2.70;;
7001;SDS011;3541;53.230;10.518;2023-02-28T05:17:43;3.57;;;2.60;;
7001;SDS011;3541;53.230;10.518;2023-02-28T05:20:10;5.33;;;2.90;;
7001;SDS011;3541;53.230;10.518;2023-02-28T05:22:38;8.53;;;3.20;;
7001;SDS011;3541;53.230;10.518;2023-02-28T05:25:05;4.70;;;2.73;;
7001;SDS011;3541;53.230;10.518;2023-02-28T05:27:32;4.07;;;2.90;;
7001;SDS011;3541;53.230;10.518;2023-02-28T05:29:59;4.07;;;2.83;;
7001;SDS011;3541;53.230;10.518;2023-02-28T05:32:29;4.00;;;2.63;;
7001;SDS011;3541;53.230;10.518;2023-02-28T05:34:56;5.63;;;3.17;;
7001;SDS011;3541;53.230;10.518;2023-02-28T05:37:22;5.87;;;2.90;;
7001;SDS011;3541;53.230;10.518;2023-02-28T05:39:49;4.53;;;3.53;;
7001;SDS011;3541;53.230;10.518;2023-02-28T05:42:15;5.00;;;2.83;;
7001;SDS011;3541;53.230;10.518;2023-02-28T05:44:42;4.10;;;2.90;;
7001;SDS011;3541;53.230;10.518;2023-02-28T05:47:08;5.57;;;3.00;;
7001;SDS011;3541;53.230;10.518;2023-02-28T05:49:36;3.53;;;2.90;;
7001;SDS011;3541;53.230;10.518;2023-02-28T05:52:03;3.60;;;2.60;;
7001;SDS011;3541;53.230;10.518;2023-02-28T05:54:30;4.37;;;3.00;;
7001;SDS011;3541;53.230;10.518;2023-02-28T05:56:56;3.00;;;2.70;;
7001;SDS011;3541;53.230;10.518;2023-02-28T05:59:23;4.90;;;3.10;;
7001;SDS011;3541;53.230;10.518;2023-02-28T06:01:50;4.77;;;3.00;;
7001;SDS011;3541;53.230;10.518;2023-02-28T06:04:18;3.80;;;3.40;;
7001;SDS011;3541;53.230;10.518;2023-02-28T06:06:48;3.93;;;2.83;;
7001;SDS011;3541;53.230;10.518;2023-02-28T06:09:15;4.30;;;3.50;;
7001;SDS011;3541;53.230;10.518;2023-02-28T06:11:42;3.27;;;2.97;;
7001;SDS011;3541;53.230;10.518;2023-02-28T06:14:10;4.83;;;3.30;;
7001;SDS011;3541;53.230;10.518;2023-02-28T06:16:40;4.90;;;3.30;;
7001;SDS011;3541;53.230;10.518;2023-02-28T06:19:06;4.00;;;3.37;;
7001;SDS011;3541;53.230;10.518;2023-02-28T06:21:34;4.37;;;3.20;;
7001;SDS011;3541;53.230;10.518;2023-02-28T06:24:03;4.87;;;3.73;;
7001;SDS011;3541;53.230;10.518;2023-02-28T06:26:30;4.90;;;3.20;;
7001;SDS011;3541;53.230;10.518;2023-02-28T06:28:57;3.90;;;2.90;;
7001;SDS011;3541;53.230;10.518;2023-02-28T06:31:23;3.90;;;3.20;;
7001;SDS011;3541;53.230;10.518;2023-02-28T06:33:51;5.23;;;3.00;;
7001;SDS011;3541;53.230;10.518;2023-02-28T06:36:17;4.27;;;2.63;;
7001;SDS011;3541;53.230;10.518;2023-02-28T06:38:44;4.60;;;2.83;;
7001;SDS011;3541;53.230;10.518;2023-02-28T06:41:17;5.50;;;3.13;;
7001;SDS011;3541;53.230;10.518;2023-02-28T06:43:44;5.43;;;2.93;;
7001;SDS011;3541;53.230;10.518;2023-02-28T06:46:11;4.90;;;2.83;;
7001;SDS011;3541;53.230;10.518;2023-02-28T06:48:39;4.57;;;2.80;;
7001;SDS011;3541;53.230;10.518;2023-02-28T06:51:07;4.27;;;2.87;;
7001;SDS011;3541;53.230;10.518;2023-02-28T06:53:36;6.60;;;4.10;;
7001;SDS011;3541;53.230;10.518;2023-02-28T06:56:03;6.30;;;4.03;;
7001;SDS011;3541;53.230;10.518;2023-02-28T06:58:32;6.17;;;3.50;;
7001;SDS011;3541;53.230;10.518;2023-02-28T07:00:59;8.70;;;4.63;;
7001;SDS011;3541;53.230;10.518;2023-02-28T07:03:26;10.37;;;5.20;;
7001;SDS011;3541;53.230;10.518;2023-02-28T07:05:53;9.47;;;5.27;;
7001;SDS011;3541;53.230;10.518;2023-02-28T07:08:21;7.10;;;4.30;;
7001;SDS011;3541;53.230;10.518;2023-02-28T07:10:47;6.27;;;3.60;;
7001;SDS011;3541;53.230;10.518;2023-02-28T07:13:18;6.90;;;3.93;;
7001;SDS011;3541;53.230;10.518;2023-02-28T07:15:52;5.30;;;3.07;;
7001;SDS011;3541;53.230;10.518;2023-02-28T07:18:19;3.93;;;2.60;;
7001;SDS011;3541;53.230;10.518;2023-02-28T07:20:45;3.80;;;2.80;;
7001;SDS011;3541;53.230;10.518;2023-02-28T07:23:12;4.10;;;2.97;;
7001;SDS011;3541;53.230;10.518;2023-02-28T07:25:39;5.20;;;2.90;;
7001;SDS011;3541;53.230;10.518;2023-02-28T07:28:05;5.73;;;3.63;;
7001;SDS011;3541;53.230;10.518;2023-02-28T07:30:32;5.87;;;3.60;;
7001;SDS011;3541;53.230;10.518;2023-02-28T07:33:00;5.20;;;3.63;;
7001;SDS011;3541;53.230;10.518;2023-02-28T07:35:26;5.90;;;3.67;;
7001;SDS011;3541;53.230;10.518;2023-02-28T07:37:53;5.00;;;3.97;;
7001;SDS011;3541;53.230;10.518;2023-02-28T07:40:20;4.93;;;3.03;;
7001;SDS011;3541;53.230;10.518;2023-02-28T07:42:46;4.47;;;2.80;;
7001;SDS011;3541;53.230;10.518;2023-02-28T07:45:13;4.23;;;2.70;;
7001;SDS011;3541;53.230;10.518;2023-02-28T07:47:40;5.73;;;3.10;;
7001;SDS011;3541;53.230;10.518;2023-02-28T07:50:10;5.93;;;3.00;;
7001;SDS011;3541;53.230;10.518;2023-02-28T07:52:38;4.80;;;3.27;;
7001;SDS011;3541;53.230;10.518;2023-02-28T07:55:06;6.37;;;3.80;;
7001;SDS011;3541;53.230;10.518;2023-02-28T07:57:34;6.97;;;4.30;;
7001;SDS011;3541;53.230;10.518;2023-02-28T08:00:02;6.90;;;4.60;;
7001;SDS011;3541;53.230;10.518;2023-02-28T08:02:29;5.87;;;4.40;;
7001;SDS011;3541;53.230;10.518;2023-02-28T08:04:56;6.50;;;4.70;;
7001;SDS011;3541;53.230;10.518;2023-02-28T08:07:23;11.73;;;5.93;;
7001;SDS011;3541;53.230;10.518;2023-02-28T08:09:50;10.33;;;6.63;;
7001;SDS011;3541;53.230;10.518;2023-02-28T08:12:17;10.17;;;6.57;;
7001;SDS011;3541;53.230;10.518;2023-02-28T08:14:43;13.67;;;7.20;;
7001;SDS011;3541;53.230;10.518;2023-02-28T08:17:10;12.00;;;6.50;;
7001;SDS011;3541;53.230;10.518;2023-02-28T08:19:37;14.67;;;6.03;;
7001;SDS011;3541;53.230;10.518;2023-02-28T08:22:04;10.27;;;6.43;;
7001;SDS011;3541;53.230;10.518;2023-02-28T08:24:32;11.90;;;5.87;;
7001;SDS011;3541;53.230;10.518;2023-02-28T08:26:59;10.23;;;6.03;;
7001;SDS011;3541;53.230;10.518;2023-02-28T08:29:26;14.27;;;5.63;;
7001;SDS011;3541;53.230;10.518;2023-02-28T08:31:52;10.47;;;5.07;;
7001;SDS011;3541;53.230;10.518;2023-02-28T08:34:19;12.80;;;5.90;;
7001;SDS011;3541;53.230;10.518;2023-02-28T08:36:45;11.50;;;6.43;;
7001;SDS011;3541;53.230;10.518;2023-02-28T08:39:12;15.17;;;6.10;;
7001;SDS011;3541;53.230;10.518;2023-02-28T08:41:41;11.13;;;5.27;;
7001;SDS011;3541;53.230;10.518;2023-02-28T08:44:09;15.40;;;5.40;;
7001;SDS011;3541;53.230;10.518;2023-02-28T08:46:35;7.60;;;4.77;;
7001;SDS011;3541;53.230;10.518;2023-02-28T08:49:02;9.47;;;5.10;;
7001;SDS011;3541;53.230;10.518;2023-02-28T08:51:28;11.10;;;6.00;;
7001;SDS011;3541;53.230;10.518;2023-02-28T08:53:57;13.90;;;5.67;;
7001;SDS011;3541;53.230;10.518;2023-02-28T08:56:25;12.60;;;6.90;;
7001;SDS011;3541;53.230;10.518;2023-02-28T08:58:54;12.17;;;7.53;;
7001;SDS011;3541;53.230;10.518;2023-02-28T09:01:22;10.33;;;7.87;;
7001;SDS011;3541;53.230;10.518;2023-02-28T09:03:51;11.37;;;7.67;;
7001;SDS011;3541;53.230;10.518;2023-02-28T09:06:19;14.80;;;6.80;;
7001;SDS011;3541;53.230;10.518;2023-02-28T09:08:47;10.10;;;6.23;;
7001;SDS011;3541;53.230;10.518;2023-02-28T09:11:15;8.17;;;6.00;;
7001;SDS011;3541;53.230;10.518;2023-02-28T09:13:43;9.50;;;5.83;;
7001;SDS011;3541;53.230;10.518;2023-02-28T09:16:12;12.17;;;5.80;;
7001;SDS011;3541;53.230;10.518;2023-02-28T09:18:41;5.93;;;4.47;;
7001;SDS011;3541;53.230;10.518;2023-02-28T09:21:08;7.53;;;4.17;;
7001;SDS011;3541;53.230;10.518;2023-02-28T09:23:39;7.23;;;4.10;;
7001;SDS011;3541;53.230;10.518;2023-02-28T09:26:06;4.93;;;2.17;;
7001;SDS011;3541;53.230;10.518;2023-02-28T09:28:32;5.07;;;2.83;;
7001;SDS011;3541;53.230;10.518;2023-02-28T09:30:59;3.33;;;2.00;;
7001;SDS011;3541;53.230;10.518;2023-02-28T09:33:27;3.57;;;2.40;;
7001;SDS011;3541;53.230;10.518;2023-02-28T09:35:57;4.60;;;2.30;;
7001;SDS011;3541;53.230;10.518;2023-02-28T09:38:25;3.53;;;2.00;;
7001;SDS011;3541;53.230;10.518;2023-02-28T09:40:53;3.10;;;1.80;;
7001;SDS011;3541;53.230;10.518;2023-02-28T09:43:22;3.13;;;1.70;;
7001;SDS011;3541;53.230;10.518;2023-02-28T09:45:52;3.43;;;1.80;;
7001;SDS011;3541;53.230;10.518;2023-02-28T09:48:27;2.70;;;2.00;;
7001;SDS011;3541;53.230;10.518;2023-02-28T09:50:59;3.50;;;1.80;;
7001;SDS011;3541;53.230;10.518;2023-02-28T09:53:29;3.17;;;2.03;;
7001;SDS011;3541;53.230;10.518;2023-02-28T09:55:59;1.90;;;1.70;;
7001;SDS011;3541;53.230;10.518;2023-02-28T09:58:31;7.60;;;3.00;;
7001;SDS011;3541;53.230;10.518;2023-02-28T10:01:03;2.60;;;1.90;;
7001;SDS011;3541;53.230;10.518;2023-02-28T10:03:36;2.63;;;1.60;;
7001;SDS011;3541;53.230;10.518;2023-02-28T10:06:07;5.53;;;1.80;;
7001;SDS011;3541;53.230;10.518;2023-02-28T10:08:40;1.53;;;1.30;;
7001;SDS011;3541;53.230;10.518;2023-02-28T10:11:11;1.80;;;1.60;;
7001;SDS011;3541;53.230;10.518;2023-02-28T10:13:43;2.07;;;1.70;;
7001;SDS011;3541;53.230;10.518;2023-02-28T10:16:20;1.70;;;1.50;;
7001;SDS011;3541;53.230;10.518;2023-02-28T10:18:53;2.20;;;1.70;;
7001;SDS011;3541;53.230;10.518;2023-02-28T10:21:24;1.80;;;1.43;;
7001;SDS011;3541;53.230;10.518;2023-02-28T10:23:57;1.67;;;1.23;;
7001;SDS011;3541;53.230;10.518;2023-02-28T10:26:29;3.27;;;1.27;;
7001;SDS011;3541;53.230;10.518;2023-02-28T10:28:57;1.97;;;1.40;;
7001;SDS011;3541;53.230;10.518;2023-02-28T10:31:24;2.33;;;1.60;;
7001;SDS011;3541;53.230;10.518;2023-02-28T10:33:52;3.80;;;1.60;;
7001;SDS011;3541;53.230;10.518;2023-02-28T10:36:19;2.20;;;1.47;;
7001;SDS011;3541;53.230;10.518;2023-02-28T10:38:46;2.70;;;1.73;;
7001;SDS011;3541;53.230;10.518;2023-02-28T10:41:14;3.77;;;1.97;;
7001;SDS011;3541;53.230;10.518;2023-02-28T10:43:51;2.20;;;1.60;;
7001;SDS011;3541;53.230;10.518;2023-02-28T10:46:18;3.47;;;1.60;;
7001;SDS011;3541;53.230;10.518;2023-02-28T10:48:59;3.77;;;1.70;;
7001;SDS011;3541;53.230;10.518;2023-02-28T10:51:33;1.70;;;1.50;;
7001;SDS011;3541;53.230;10.518;2023-02-28T10:54:02;2.13;;;1.60;;
7001;SDS011;3541;53.230;10.518;2023-02-28T10:56:29;2.93;;;1.70;;
7001;SDS011;3541;53.230;10.518;2023-02-28T10:58:57;3.37;;;1.80;;
7001;SDS011;3541;53.230;10.518;2023-02-28T11:01:34;2.70;;;1.40;;
7001;SDS011;3541;53.230;10.518;2023-02-28T11:04:04;2.10;;;1.57;;
7001;SDS011;3541;53.230;10.518;2023-02-28T11:06:43;3.67;;;2.07;;
7001;SDS011;3541;53.230;10.518;2023-02-28T11:09:15;4.20;;;2.17;;
7001;SDS011;3541;53.230;10.518;2023-02-28T11:11:47;2.80;;;1.73;;
7001;SDS011;3541;53.230;10.518;2023-02-28T11:14:17;2.57;;;1.60;;
7001;SDS011;3541;53.230;10.518;2023-02-28T11:16:46;1.63;;;1.37;;
7001;SDS011;3541;53.230;10.518;2023-02-28T11:19:17;2.00;;;1.40;;
7001;SDS011;3541;53.230;10.518;2023-02-28T11:21:48;1.57;;;1.43;;
7001;SDS011;3541;53.230;10.518;2023-02-28T11:24:21;2.80;;;1.30;;
7001;SDS011;3541;53.230;10.518;2023-02-28T11:26:50;3.30;;;1.80;;
7001;SDS011;3541;53.230;10.518;2023-02-28T11:29:19;2.87;;;1.60;;
7001;SDS011;3541;53.230;10.518;2023-02-28T11:32:02;2.23;;;1.57;;
7001;SDS011;3541;53.230;10.518;2023-02-28T11:34:43;2.60;;;1.80;;
7001;SDS011;3541;53.230;10.518;2023-02-28T11:37:12;3.90;;;1.70;;
7001;SDS011;3541;53.230;10.518;2023-02-28T11:39:40;2.50;;;1.50;;
7001;SDS011;3541;53.230;10.518;2023-02-28T11:42:11;1.67;;;1.30;;
7001;SDS011;3541;53.230;10.518;2023-02-28T11:45:00;1.63;;;1.30;;
7001;SDS011;3541;53.230;10.518;2023-02-28T11:47:37;2.77;;;1.30;;
7001;SDS011;3541;53.230;10.518;2023-02-28T11:50:15;2.43;;;1.20;;
7001;SDS011;3541;53.230;10.518;2023-02-28T11:52:52;1.20;;;1.10;;
7001;SDS011;3541;53.230;10.518;2023-02-28T11:55:21;1.53;;;1.13;;
7001;SDS011;3541;53.230;10.518;2023-02-28T11:57:53;1.20;;;1.10;;
7001;SDS011;3541;53.230;10.518;2023-02-28T12:00:32;1.87;;;1.20;;
7001;SDS011;3541;53.230;10.518;2023-02-28T12:03:15;2.17;;;1.67;;
7001;SDS011;3541;53.230;10.518;2023-02-28T12:05:52;1.77;;;1.40;;
7001;SDS011;3541;53.230;10.518;2023-02-28T12:08:26;2.40;;;1.20;;
7001;SDS011;3541;53.230;10.518;2023-02-28T12:11:09;2.07;;;1.40;;
7001;SDS011;3541;53.230;10.518;2023-02-28T12:13:45;1.57;;;1.33;;
7001;SDS011;3541;53.230;10.518;2023-02-28T12:16:27;1.30;;;1.17;;
7001;SDS011;3541;53.230;10.518;2023-02-28T12:19:12;2.27;;;1.53;;
7001;SDS011;3541;53.230;10.518;2023-02-28T12:21:53;2.03;;;1.40;;
7001;SDS011;3541;53.230;10.518;2023-02-28T12:24:39;1.60;;;1.47;;
7001;SDS011;3541;53.230;10.518;2023-02-28T12:27:14;1.73;;;1.40;;
7001;SDS011;3541;53.230;10.518;2023-02-28T12:29:46;2.33;;;1.70;;
7001;SDS011;3541;53.230;10.518;2023-02-28T12:32:16;2.83;;;1.53;;
7001;SDS011;3541;53.230;10.518;2023-02-28T12:34:47;2.00;;;1.50;;
7001;SDS011;3541;53.230;10.518;2023-02-28T12:37:17;3.33;;;2.07;;
7001;SDS011;3541;53.230;10.518;2023-02-28T12:39:49;2.00;;;1.57;;
7001;SDS011;3541;53.230;10.518;2023-02-28T12:42:23;1.97;;;1.50;;
7001;SDS011;3541;53.230;10.518;2023-02-28T12:44:54;2.03;;;1.60;;
7001;SDS011;3541;53.230;10.518;2023-02-28T12:47:25;3.80;;;1.90;;
7001;SDS011;3541;53.230;10.518;2023-02-28T12:49:52;2.10;;;1.40;;
7001;SDS011;3541;53.230;10.518;2023-02-28T12:52:25;1.70;;;1.27;;
7001;SDS011;3541;53.230;10.518;2023-02-28T12:54:59;3.17;;;1.47;;
7001;SDS011;3541;53.230;10.518;2023-02-28T12:57:32;2.27;;;1.60;;
7001;SDS011;3541;53.230;10.518;2023-02-28T13:00:08;1.73;;;1.57;;
7001;SDS011;3541;53.230;10.518;2023-02-28T13:05:39;2.60;;;1.70;;
7001;SDS011;3541;53.230;10.518;2023-02-28T13:11:23;1.83;;;1.60;;
7001;SDS011;3541;53.230;10.518;2023-02-28T13:13:56;2.30;;;1.60;;
7001;SDS011;3541;53.230;10.518;2023-02-28T13:16:25;2.83;;;1.60;;
7001;SDS011;3541;53.230;10.518;2023-02-28T13:18:51;2.40;;;1.37;;
7001;SDS011;3541;53.230;10.518;2023-02-28T13:21:22;3.47;;;1.50;;
7001;SDS011;3541;53.230;10.518;2023-02-28T13:24:02;2.47;;;1.53;;
7001;SDS011;3541;53.230;10.518;2023-02-28T13:29:34;2.00;;;1.30;;
7001;SDS011;3541;53.230;10.518;2023-02-28T13:32:28;1.70;;;1.60;;
7001;SDS011;3541;53.230;10.518;2023-02-28T13:44:06;3.13;;;1.50;;
7001;SDS011;3541;53.230;10.518;2023-02-28T13:46:35;3.40;;;1.50;;
7001;SDS011;3541;53.230;10.518;2023-02-28T13:49:18;2.57;;;1.60;;
7001;SDS011;3541;53.230;10.518;2023-02-28T13:51:46;3.20;;;1.40;;
7001;SDS011;3541;53.230;10.518;2023-02-28T13:54:16;1.80;;;1.37;;
7001;SDS011;3541;53.230;10.518;2023-02-28T13:56:52;1.83;;;1.40;;
7001;SDS011;3541;53.230;10.518;2023-02-28T13:59:31;2.97;;;1.30;;
7001;SDS011;3541;53.230;10.518;2023-02-28T14:05:01;2.50;;;1.30;;
7001;SDS011;3541;53.230;10.518;2023-02-28T14:07:31;1.30;;;1.10;;
7001;SDS011;3541;53.230;10.518;2023-02-28T14:10:15;1.97;;;1.50;;
7001;SDS011;3541;53.230;10.518;2023-02-28T14:12:57;2.30;;;1.40;;
7001;SDS011;3541;53.230;10.518;2023-02-28T14:15:28;4.90;;;1.57;;
7001;SDS011;3541;53.230;10.518;2023-02-28T14:18:05;3.07;;;1.57;;
7001;SDS011;3541;53.230;10.518;2023-02-28T14:20:42;2.07;;;1.40;;
7001;SDS011;3541;53.230;10.518;2023-02-28T14:23:13;1.53;;;1.33;;
7001;SDS011;3541;53.230;10.518;2023-02-28T14:25:47;3.20;;;1.57;;
7001;SDS011;3541;53.230;10.518;2023-02-28T14:28:41;2.60;;;1.40;;
7001;SDS011;3541;53.230;10.518;2023-02-28T14:31:19;3.07;;;1.40;;
7001;SDS011;3541;53.230;10.518;2023-02-28T14:33:57;7.37;;;6.53;;
7001;SDS011;3541;53.230;10.518;2023-02-28T14:36:31;4.80;;;4.10;;
7001;SDS011;3541;53.230;10.518;2023-02-28T14:39:03;2.00;;;1.40;;
7001;SDS011;3541;53.230;10.518;2023-02-28T14:41:33;2.50;;;1.57;;
7001;SDS011;3541;53.230;10.518;2023-02-28T14:44:02;1.97;;;1.40;;
7001;SDS011;3541;53.230;10.518;2023-02-28T14:46:40;1.60;;;1.30;;
7001;SDS011;3541;53.230;10.518;2023-02-28T14:49:16;1.70;;;1.27;;
7001;SDS011;3541;53.230;10.518;2023-02-28T14:51:44;1.47;;;1.37;;
7001;SDS011;3541;53.230;10.518;2023-02-28T14:54:13;2.67;;;1.43;;
7001;SDS011;3541;53.230;10.518;2023-02-28T14:56:41;2.03;;;1.30;;
7001;SDS011;3541;53.230;10.518;2023-02-28T14:59:21;1.73;;;1.40;;
7001;SDS011;3541;53.230;10.518;2023-02-28T15:01:52;1.50;;;1.40;;
7001;SDS011;3541;53.230;10.518;2023-02-28T15:04:34;3.03;;;1.40;;
7001;SDS011;3541;53.230;10.518;2023-02-28T15:07:09;3.13;;;1.70;;
7001;SDS011;3541;53.230;10.518;2023-02-28T15:09:37;1.73;;;1.50;;
7001;SDS011;3541;53.230;10.518;2023-02-28T15:12:03;2.87;;;1.40;;
7001;SDS011;3541;53.230;10.518;2023-02-28T15:14:30;1.40;;;1.17;;
7001;SDS011;3541;53.230;10.518;2023-02-28T15:16:59;2.27;;;1.70;;
7001;SDS011;3541;53.230;10.518;2023-02-28T15:19:29;2.00;;;1.20;;
7001;SDS011;3541;53.230;10.518;2023-02-28T15:21:58;4.27;;;1.53;;
7001;SDS011;3541;53.230;10.518;2023-02-28T15:24:30;2.20;;;1.50;;
7001;SDS011;3541;53.230;10.518;2023-02-28T15:27:03;2.17;;;1.43;;
7001;SDS011;3541;53.230;10.518;2023-02-28T15:29:33;2.03;;;1.57;;
7001;SDS011;3541;53.230;10.518;2023-02-28T15:32:16;1.40;;;1.30;;
7001;SDS011;3541;53.230;10.518;2023-02-28T15:34:49;1.20;;;1.10;;
7001;SDS011;3541;53.230;10.518;2023-02-28T15:37:26;2.73;;;1.30;;
7001;SDS011;3541;53.230;10.518;2023-02-28T15:39:56;2.27;;;1.50;;
7001;SDS011;3541;53.230;10.518;2023-02-28T15:42:27;1.47;;;1.37;;
7001;SDS011;3541;53.230;10.518;2023-02-28T15:44:54;1.87;;;1.50;;
7001;SDS011;3541;53.230;10.518;2023-02-28T15:47:24;1.53;;;1.43;;
7001;SDS011;3541;53.230;10.518;2023-02-28T15:49:53;1.77;;;1.30;;
7001;SDS011;3541;53.230;10.518;2023-02-28T15:52:24;3.60;;;1.33;;